Time;durP1;ratioP1;P1;durP2;ratioP2;P2;SDS_P1;SDS_P2;PMS_P1;PMS_P2;Temp;Humidity;BMP_temperature;BMP_pressure;BME280_temperature;BME280_humidity;BME280_pressure;Samples;Min_cycle;Max_cycle;Signal;HPM_P1;HPM_P2
2022/07/07 00:01:32;;;;;;;15.32;8.60;;;13.60;98.90;;;;;;5045972;28;20041;-69
2022/07/07 00:03:58;;;;;;;13.20;8.80;;;13.70;99.00;;;;;;5044976;28;20789;-69
2022/07/07 00:06:23;;;;;;;13.65;9.40;;;13.70;99.00;;;;;;5044071;28;20047;-69
2022/07/07 00:08:49;;;;;;;15.75;9.63;;;13.70;99.10;;;;;;5043425;28;21187;-69
2022/07/07 00:11:16;;;;;;;15.13;9.15;;;13.70;99.10;;;;;;5044991;28;20021;-69
2022/07/07 00:13:42;;;;;;;17.25;10.00;;;13.80;99.10;;;;;;5044911;28;20033;-69
2022/07/07 00:16:08;;;;;;;14.63;9.80;;;13.80;99.20;;;;;;5044442;28;20082;-69
2022/07/07 00:18:34;;;;;;;15.98;10.10;;;13.80;99.10;;;;;;5048967;28;20053;-69
2022/07/07 00:21:00;;;;;;;14.43;9.50;;;13.80;99.20;;;;;;5041453;28;20125;-69
2022/07/07 00:23:26;;;;;;;16.05;9.20;;;13.80;99.10;;;;;;5045755;28;20117;-69
2022/07/07 00:25:51;;;;;;;14.18;9.60;;;13.90;99.30;;;;;;5040565;28;20025;-69
2022/07/07 00:28:16;;;;;;;18.00;9.40;;;13.90;99.20;;;;;;5042655;28;20057;-69
2022/07/07 00:30:42;;;;;;;15.35;9.82;;;13.90;99.20;;;;;;5044146;28;20080;-69
2022/07/07 00:33:08;;;;;;;17.02;10.13;;;13.90;99.20;;;;;;5043301;28;20033;-70
2022/07/07 00:35:33;;;;;;;14.85;9.98;;;14.00;99.30;;;;;;5046958;28;20033;-70
2022/07/07 00:37:58;;;;;;;17.08;10.63;;;14.00;99.30;;;;;;5045660;28;20048;-69
2022/07/07 00:40:24;;;;;;;15.23;9.82;;;14.00;99.40;;;;;;5038370;28;20033;-69
2022/07/07 00:42:49;;;;;;;17.25;10.52;;;14.00;99.30;;;;;;5045155;28;20048;-69
2022/07/07 00:45:15;;;;;;;16.30;10.75;;;14.00;99.40;;;;;;5042871;28;20133;-69
2022/07/07 00:47:40;;;;;;;15.85;10.00;;;14.00;99.40;;;;;;5040665;28;20036;-69
2022/07/07 00:50:08;;;;;;;17.45;11.45;;;14.00;99.40;;;;;;5044885;28;20401;-70
2022/07/07 00:52:33;;;;;;;18.05;11.00;;;14.00;99.40;;;;;;5044929;28;20124;-69
2022/07/07 00:55:02;;;;;;;20.35;11.88;;;14.10;99.40;;;;;;5038779;28;20166;-69
2022/07/07 00:57:28;;;;;;;16.58;11.20;;;14.10;99.50;;;;;;5044010;28;20116;-69
2022/07/07 00:59:57;;;;;;;18.35;12.68;;;14.10;99.40;;;;;;5037398;28;20025;-69
2022/07/07 01:02:23;;;;;;;16.77;10.77;;;14.10;99.40;;;;;;5045873;28;20032;-69
2022/07/07 01:04:50;;;;;;;15.63;10.55;;;14.10;99.50;;;;;;5045994;28;20029;-69
2022/07/07 01:07:15;;;;;;;18.50;11.10;;;14.10;99.40;;;;;;5047313;28;20053;-69
2022/07/07 01:09:42;;;;;;;17.95;10.90;;;14.10;99.50;;;;;;5041734;28;20029;-70
2022/07/07 01:12:08;;;;;;;17.70;10.90;;;14.20;99.50;;;;;;5045273;28;20067;-70
2022/07/07 01:14:33;;;;;;;14.73;10.00;;;14.20;99.50;;;;;;5042355;28;20105;-70
2022/07/07 01:16:59;;;;;;;19.65;10.75;;;14.20;99.60;;;;;;5045261;28;20061;-70
2022/07/07 01:19:25;;;;;;;16.08;10.40;;;14.20;99.50;;;;;;5044052;28;20091;-70
2022/07/07 01:22:03;;;;;;;17.00;10.77;;;14.10;99.50;;;;;;5046258;28;20057;-70
2022/07/07 01:24:30;;;;;;;16.20;10.80;;;14.20;99.60;;;;;;5042117;28;20029;-70
2022/07/07 01:27:11;;;;;;;21.67;12.55;;;14.30;99.60;;;;;;5046267;28;20036;-70
2022/07/07 01:29:42;;;;;;;18.02;12.07;;;14.30;99.70;;;;;;5043197;28;20448;-70
2022/07/07 01:32:08;;;;;;;19.65;12.93;;;14.20;99.70;;;;;;5046101;28;20037;-70
2022/07/07 01:34:40;;;;;;;20.42;13.68;;;14.30;99.70;;;;;;5044095;28;20224;-70
2022/07/07 01:37:06;;;;;;;20.92;13.70;;;14.30;99.70;;;;;;5041982;28;20098;-70
2022/07/07 01:39:33;;;;;;;23.40;13.82;;;14.20;99.70;;;;;;5040863;28;20033;-70
2022/07/07 01:41:58;;;;;;;23.00;14.80;;;14.30;99.70;;;;;;5036104;28;20448;-70
2022/07/07 01:44:24;;;;;;;24.63;15.50;;;14.30;99.70;;;;;;5044001;28;20097;-70
2022/07/07 01:46:50;;;;;;;23.73;16.10;;;14.30;99.80;;;;;;5043123;28;20391;-70
2022/07/07 01:49:16;;;;;;;29.55;17.17;;;14.30;99.80;;;;;;5042760;28;20107;-70
2022/07/07 01:51:42;;;;;;;28.95;17.30;;;14.30;99.80;;;;;;5038139;28;20043;-70
2022/07/07 01:54:08;;;;;;;31.80;17.73;;;14.30;99.80;;;;;;5044019;28;20556;-70
2022/07/07 01:56:34;;;;;;;30.88;18.08;;;14.30;99.80;;;;;;5044928;28;20116;-70
2022/07/07 01:58:59;;;;;;;32.15;18.33;;;14.40;99.80;;;;;;5043232;28;20116;-70
2022/07/07 02:01:25;;;;;;;28.60;17.90;;;14.40;99.80;;;;;;5044075;28;20030;-70
2022/07/07 02:03:50;;;;;;;31.17;18.65;;;14.40;99.80;;;;;;5043472;28;20028;-70
2022/07/07 02:06:16;;;;;;;32.72;19.20;;;14.40;99.80;;;;;;5046712;28;20037;-70
2022/07/07 02:08:41;;;;;;;28.25;18.35;;;14.40;99.80;;;;;;5043841;28;20037;-70
2022/07/07 02:11:13;;;;;;;31.77;19.40;;;14.40;99.90;;;;;;5044293;28;20033;-70
2022/07/07 02:13:39;;;;;;;35.75;20.02;;;14.40;99.90;;;;;;5046682;28;20037;-70
2022/07/07 02:16:05;;;;;;;32.70;19.55;;;14.40;99.90;;;;;;5047837;28;20087;-70
2022/07/07 02:18:35;;;;;;;36.55;21.42;;;14.50;99.90;;;;;;5047271;28;21281;-70
2022/07/07 02:21:01;;;;;;;40.00;22.88;;;14.50;99.90;;;;;;5050006;28;20132;-70
2022/07/07 02:23:27;;;;;;;37.75;22.85;;;14.50;99.90;;;;;;5046947;28;20051;-70
2022/07/07 02:25:53;;;;;;;41.47;22.85;;;14.50;99.90;;;;;;5043243;28;20021;-70
2022/07/07 02:28:20;;;;;;;43.78;22.65;;;14.50;99.90;;;;;;5043825;28;20436;-70
2022/07/07 02:30:46;;;;;;;42.72;23.00;;;14.50;99.90;;;;;;5041072;28;20032;-70
2022/07/07 02:33:12;;;;;;;38.83;23.67;;;14.50;99.90;;;;;;5048460;28;20032;-70
2022/07/07 02:35:37;;;;;;;41.58;24.75;;;14.50;99.90;;;;;;5049087;28;20082;-70
2022/07/07 02:38:03;;;;;;;41.40;25.23;;;14.50;99.90;;;;;;5048036;28;20112;-70
2022/07/07 02:40:29;;;;;;;43.47;24.33;;;14.60;99.90;;;;;;5043173;28;20048;-70
2022/07/07 02:42:54;;;;;;;45.00;25.85;;;14.60;99.90;;;;;;5047080;28;20445;-70
2022/07/07 02:45:20;;;;;;;48.22;26.35;;;14.60;99.90;;;;;;5044291;28;20037;-70
2022/07/07 02:47:45;;;;;;;43.67;25.88;;;14.60;99.90;;;;;;5042413;28;20033;-69
2022/07/07 02:50:11;;;;;;;47.03;25.98;;;14.60;99.90;;;;;;5042648;28;20052;-70
2022/07/07 02:52:36;;;;;;;42.58;26.55;;;14.60;99.90;;;;;;5042979;28;20086;-69
2022/07/07 02:55:02;;;;;;;44.65;25.17;;;14.60;99.90;;;;;;5043056;28;20040;-70
2022/07/07 02:57:27;;;;;;;43.80;26.95;;;14.60;99.90;;;;;;5037056;28;20173;-69
2022/07/07 02:59:53;;;;;;;49.83;26.45;;;14.60;99.90;;;;;;5048050;28;20048;-70
2022/07/07 03:02:19;;;;;;;45.10;26.20;;;14.60;99.90;;;;;;5050341;28;20033;-70
2022/07/07 03:04:44;;;;;;;52.78;26.23;;;14.60;99.90;;;;;;5043673;28;20029;-70
2022/07/07 03:07:10;;;;;;;46.03;27.17;;;14.60;99.90;;;;;;5048626;28;20322;-70
2022/07/07 03:09:35;;;;;;;47.67;26.38;;;14.60;99.90;;;;;;5047959;28;20028;-70
2022/07/07 03:12:01;;;;;;;45.92;25.45;;;14.60;99.90;;;;;;5036206;28;20045;-70
2022/07/07 03:14:26;;;;;;;44.03;26.20;;;14.60;99.90;;;;;;5041091;28;20051;-70
2022/07/07 03:16:51;;;;;;;46.75;27.27;;;14.60;99.90;;;;;;5045192;28;20334;-70
2022/07/07 03:19:17;;;;;;;46.80;27.13;;;14.60;99.90;;;;;;5049007;28;20142;-70
2022/07/07 03:21:42;;;;;;;42.40;25.45;;;14.60;99.90;;;;;;5045706;28;20037;-70
2022/07/07 03:24:08;;;;;;;47.72;26.67;;;14.60;99.90;;;;;;5046543;28;20100;-70
2022/07/07 03:26:34;;;;;;;47.35;27.42;;;14.60;99.90;;;;;;5046592;28;20033;-70
2022/07/07 03:28:59;;;;;;;44.15;27.17;;;14.60;99.90;;;;;;5035322;28;20083;-70
2022/07/07 03:31:25;;;;;;;51.92;27.92;;;14.70;99.90;;;;;;5043823;28;20435;-69
2022/07/07 03:33:50;;;;;;;45.97;26.63;;;14.70;99.90;;;;;;5045772;28;20032;-70
2022/07/07 03:36:16;;;;;;;54.20;26.27;;;14.60;99.90;;;;;;5037032;28;20055;-69
2022/07/07 03:38:42;;;;;;;47.80;25.33;;;14.70;99.90;;;;;;5039082;28;20116;-70
2022/07/07 03:41:07;;;;;;;46.60;25.40;;;14.70;99.90;;;;;;5038129;28;20198;-70
2022/07/07 03:43:33;;;;;;;38.60;25.77;;;14.60;99.90;;;;;;5046817;28;20062;-70
2022/07/07 03:45:59;;;;;;;40.58;24.05;;;14.70;99.90;;;;;;5035563;28;20043;-70
2022/07/07 03:48:24;;;;;;;45.55;26.20;;;14.70;99.90;;;;;;5044054;28;20044;-70
2022/07/07 03:50:50;;;;;;;39.15;24.15;;;14.70;99.90;;;;;;5045046;28;20358;-70
2022/07/07 03:53:15;;;;;;;49.72;25.45;;;14.70;99.90;;;;;;5041260;28;20040;-69
2022/07/07 03:55:41;;;;;;;43.50;25.17;;;14.70;99.90;;;;;;5049379;28;20072;-69
2022/07/07 03:58:06;;;;;;;45.83;24.98;;;14.70;99.90;;;;;;5044779;28;20040;-69
2022/07/07 04:00:32;;;;;;;50.55;24.95;;;14.70;99.90;;;;;;5049234;28;20044;-70
2022/07/07 04:02:57;;;;;;;45.03;25.58;;;14.70;99.90;;;;;;5049895;28;20522;-69
2022/07/07 04:05:23;;;;;;;47.92;26.33;;;14.80;99.90;;;;;;5044443;28;20029;-69
2022/07/07 04:07:48;;;;;;;50.10;26.00;;;14.70;99.90;;;;;;5046141;28;20104;-69
2022/07/07 04:10:14;;;;;;;46.33;24.63;;;14.80;99.90;;;;;;5041656;28;20463;-69
2022/07/07 04:12:39;;;;;;;38.10;24.48;;;14.70;99.90;;;;;;5045773;28;20071;-69
2022/07/07 04:15:05;;;;;;;35.72;23.10;;;14.70;99.90;;;;;;5043000;28;20036;-69
2022/07/07 04:17:30;;;;;;;35.58;22.45;;;14.70;99.90;;;;;;5046482;28;20492;-68
2022/07/07 04:19:56;;;;;;;38.67;23.13;;;14.70;99.90;;;;;;5045602;28;20041;-68
2022/07/07 04:22:21;;;;;;;35.42;21.88;;;14.70;99.90;;;;;;5042897;28;20036;-68
2022/07/07 04:24:47;;;;;;;36.92;21.27;;;14.70;99.90;;;;;;5045906;28;20040;-68
2022/07/07 04:27:12;;;;;;;34.38;20.77;;;14.70;99.90;;;;;;5045948;28;20079;-68
2022/07/07 04:29:38;;;;;;;33.65;20.00;;;14.70;99.90;;;;;;5042319;28;20079;-68
2022/07/07 04:32:04;;;;;;;34.05;19.27;;;14.70;99.90;;;;;;5045988;28;20048;-68
2022/07/07 04:34:30;;;;;;;33.55;20.10;;;14.70;99.90;;;;;;5044867;28;20046;-68
2022/07/07 04:36:55;;;;;;;34.90;19.15;;;14.70;99.90;;;;;;5035408;28;20032;-68
2022/07/07 04:39:21;;;;;;;33.75;19.55;;;14.70;99.90;;;;;;5035178;28;20053;-68
2022/07/07 04:41:46;;;;;;;27.67;18.05;;;14.70;99.90;;;;;;5042852;28;20117;-68
2022/07/07 04:44:12;;;;;;;34.40;17.13;;;14.70;99.90;;;;;;5039752;28;20268;-67
2022/07/07 04:46:38;;;;;;;24.75;16.13;;;14.80;99.90;;;;;;5042578;28;20040;-68
2022/07/07 04:49:03;;;;;;;31.92;17.83;;;14.70;99.90;;;;;;5045174;28;20029;-68
2022/07/07 04:51:29;;;;;;;30.75;17.88;;;14.80;99.90;;;;;;5046140;28;20025;-68
2022/07/07 04:53:54;;;;;;;30.88;16.85;;;14.80;99.90;;;;;;5046026;28;20037;-68
2022/07/07 04:56:20;;;;;;;29.08;16.38;;;14.90;99.90;;;;;;5044621;28;20059;-68
2022/07/07 04:58:45;;;;;;;26.75;15.40;;;14.90;99.90;;;;;;5043878;28;20040;-68
2022/07/07 05:01:11;;;;;;;25.63;15.07;;;14.90;99.90;;;;;;5043437;28;20032;-68
2022/07/07 05:03:36;;;;;;;23.23;14.23;;;14.90;99.90;;;;;;5046411;28;20929;-68
2022/07/07 05:06:02;;;;;;;22.90;13.57;;;14.90;99.90;;;;;;5049512;28;20086;-68
2022/07/07 05:08:29;;;;;;;21.50;13.57;;;14.90;99.90;;;;;;5041814;28;20147;-68
2022/07/07 05:10:55;;;;;;;19.83;12.52;;;14.90;99.90;;;;;;5043417;28;20055;-68
2022/07/07 05:13:21;;;;;;;18.25;11.68;;;14.90;99.90;;;;;;5044077;28;20029;-68
2022/07/07 05:15:48;;;;;;;16.50;9.43;;;15.00;99.90;;;;;;5044219;28;20041;-68
2022/07/07 05:18:14;;;;;;;17.25;10.32;;;15.00;99.90;;;;;;5045994;28;20033;-68
2022/07/07 05:20:40;;;;;;;14.77;10.05;;;15.00;99.90;;;;;;5049261;28;20033;-68
2022/07/07 05:23:05;;;;;;;15.27;9.95;;;15.10;99.90;;;;;;5045772;28;20412;-68
2022/07/07 05:25:31;;;;;;;16.63;9.15;;;15.10;99.90;;;;;;5049461;28;20104;-68
2022/07/07 05:27:57;;;;;;;14.07;8.45;;;15.20;99.90;;;;;;5044814;28;20030;-68
2022/07/07 05:30:22;;;;;;;10.82;8.35;;;15.20;99.90;;;;;;5038609;28;20033;-68
2022/07/07 05:32:48;;;;;;;12.13;7.82;;;15.30;99.90;;;;;;5041698;28;20399;-68
2022/07/07 05:35:14;;;;;;;11.98;7.32;;;15.30;99.90;;;;;;5045429;28;20029;-68
2022/07/07 05:37:41;;;;;;;12.63;6.97;;;15.40;99.90;;;;;;5048250;28;20106;-68
2022/07/07 05:40:07;;;;;;;11.35;7.40;;;15.40;99.90;;;;;;5046283;28;20040;-68
2022/07/07 05:42:33;;;;;;;10.35;6.53;;;15.40;99.90;;;;;;5048120;28;20036;-68
2022/07/07 05:44:59;;;;;;;9.13;6.15;;;15.50;99.90;;;;;;5045419;28;20025;-68
2022/07/07 05:47:24;;;;;;;9.68;6.07;;;15.40;99.90;;;;;;5051971;28;20380;-68
2022/07/07 05:49:50;;;;;;;9.30;5.85;;;15.50;99.90;;;;;;5051934;28;20073;-68
2022/07/07 05:52:15;;;;;;;7.13;5.22;;;15.50;99.90;;;;;;5052577;28;20108;-68
2022/07/07 05:54:41;;;;;;;10.25;5.30;;;15.40;99.90;;;;;;5052344;28;20056;-68
2022/07/07 05:57:06;;;;;;;7.57;4.43;;;15.40;99.90;;;;;;5047906;28;20828;-68
2022/07/07 05:59:32;;;;;;;8.60;5.07;;;15.40;99.90;;;;;;5049978;28;20029;-67
2022/07/07 06:01:58;;;;;;;5.95;4.45;;;15.40;99.90;;;;;;5047859;28;20033;-67
2022/07/07 06:04:24;;;;;;;7.30;4.60;;;15.40;99.90;;;;;;5051960;28;20094;-68
2022/07/07 06:06:50;;;;;;;6.65;4.45;;;15.50;99.90;;;;;;5048436;28;20017;-68
2022/07/07 06:09:16;;;;;;;7.45;4.78;;;15.40;99.90;;;;;;5046472;28;20047;-68
2022/07/07 06:11:41;;;;;;;10.15;5.43;;;15.50;99.90;;;;;;5040729;28;20749;-68
2022/07/07 06:14:07;;;;;;;9.63;5.25;;;15.50;99.90;;;;;;5050549;28;20033;-68
2022/07/07 06:16:38;;;;;;;8.30;4.93;;;15.50;99.90;;;;;;5051785;28;20032;-67
2022/07/07 06:19:08;;;;;;;7.03;5.40;;;15.50;99.90;;;;;;5051322;28;20056;-68
2022/07/07 06:21:34;;;;;;;7.75;5.15;;;15.50;99.90;;;;;;5048996;28;20360;-68
2022/07/07 06:24:00;;;;;;;6.63;5.15;;;15.60;99.90;;;;;;5051739;28;20033;-67
2022/07/07 06:26:25;;;;;;;7.95;5.07;;;15.60;99.80;;;;;;5049762;28;20037;-68
2022/07/07 06:28:51;;;;;;;9.02;4.78;;;15.60;99.80;;;;;;5047933;28;20029;-68
2022/07/07 06:31:16;;;;;;;6.30;4.32;;;15.70;99.80;;;;;;5043694;28;20052;-68
2022/07/07 06:33:42;;;;;;;7.35;4.13;;;15.70;99.90;;;;;;5044572;28;21649;-68
2022/07/07 06:36:08;;;;;;;5.65;3.33;;;15.70;99.70;;;;;;5045295;28;20033;-68
2022/07/07 06:38:33;;;;;;;5.63;3.40;;;15.60;99.60;;;;;;5051008;28;20033;-68
2022/07/07 06:40:59;;;;;;;5.53;3.33;;;15.70;99.60;;;;;;5048340;28;20028;-68
2022/07/07 06:43:25;;;;;;;6.13;3.15;;;15.70;99.60;;;;;;5048975;28;20029;-68
2022/07/07 06:45:51;;;;;;;4.75;3.13;;;15.80;99.60;;;;;;5050503;28;20043;-68
2022/07/07 06:48:17;;;;;;;4.45;2.90;;;15.80;99.50;;;;;;5051610;28;20041;-68
2022/07/07 06:50:44;;;;;;;3.78;2.75;;;15.80;99.50;;;;;;5048522;28;20033;-68
2022/07/07 06:53:09;;;;;;;4.07;2.65;;;15.80;99.40;;;;;;5051273;28;20411;-68
2022/07/07 06:55:35;;;;;;;5.65;2.30;;;15.80;99.40;;;;;;5042649;28;20162;-68
2022/07/07 06:58:02;;;;;;;3.70;2.20;;;15.70;99.30;;;;;;5039719;28;20414;-68
2022/07/07 07:00:28;;;;;;;5.25;2.50;;;15.80;99.40;;;;;;5046297;28;20123;-68
2022/07/07 07:02:54;;;;;;;4.65;2.30;;;15.80;99.40;;;;;;5047050;28;20116;-68
2022/07/07 07:05:19;;;;;;;3.05;2.50;;;15.70;99.30;;;;;;5051716;28;20468;-68
2022/07/07 07:07:45;;;;;;;4.75;3.05;;;15.70;99.30;;;;;;5051545;28;20466;-68
2022/07/07 07:10:10;;;;;;;3.33;2.60;;;15.80;99.50;;;;;;5047451;28;20459;-68
2022/07/07 07:12:36;;;;;;;6.40;2.17;;;16.00;99.40;;;;;;5040355;28;20060;-68
2022/07/07 07:15:01;;;;;;;5.30;2.42;;;16.00;99.30;;;;;;5048669;28;20035;-68
2022/07/07 07:17:27;;;;;;;3.80;1.70;;;16.00;99.30;;;;;;5051337;28;20033;-68
2022/07/07 07:19:52;;;;;;;3.95;1.98;;;16.00;99.30;;;;;;5050911;28;20089;-68
2022/07/07 07:22:18;;;;;;;4.13;2.00;;;16.00;99.20;;;;;;5051010;28;20045;-68
2022/07/07 07:24:44;;;;;;;3.78;1.92;;;16.20;99.20;;;;;;5045921;28;20025;-68
2022/07/07 07:27:09;;;;;;;4.72;2.00;;;16.40;99.10;;;;;;5048541;28;20029;-68
2022/07/07 07:29:35;;;;;;;4.53;2.40;;;16.40;98.90;;;;;;5046790;28;20044;-68
2022/07/07 07:32:01;;;;;;;5.40;2.35;;;16.40;98.40;;;;;;5043283;28;20051;-68
2022/07/07 07:34:26;;;;;;;7.10;2.28;;;16.60;98.70;;;;;;5047769;28;20196;-68
2022/07/07 07:36:52;;;;;;;2.72;1.85;;;16.50;98.20;;;;;;5050798;28;20108;-68
2022/07/07 07:39:17;;;;;;;5.32;1.63;;;16.50;98.20;;;;;;5045196;28;20048;-68
2022/07/07 07:41:43;;;;;;;2.83;1.60;;;16.50;97.90;;;;;;5047447;28;20040;-68
2022/07/07 07:44:12;;;;;;;5.20;1.70;;;16.60;97.70;;;;;;5049212;28;20108;-68
2022/07/07 07:46:38;;;;;;;3.47;1.50;;;16.60;97.30;;;;;;5050551;28;20037;-68
2022/07/07 07:49:06;;;;;;;2.90;1.90;;;16.90;97.50;;;;;;5050681;28;20021;-67
2022/07/07 07:51:33;;;;;;;4.35;1.77;;;17.00;96.80;;;;;;5040817;28;20034;-68
2022/07/07 07:53:58;;;;;;;5.80;2.05;;;17.10;96.60;;;;;;5048981;28;20472;-68
2022/07/07 07:56:24;;;;;;;3.70;2.08;;;17.10;96.60;;;;;;5048328;28;20033;-68
2022/07/07 07:58:49;;;;;;;5.55;2.08;;;17.10;96.20;;;;;;5046751;28;20080;-68
2022/07/07 08:01:15;;;;;;;5.30;1.95;;;17.00;96.70;;;;;;5050111;28;20381;-68
2022/07/07 08:03:41;;;;;;;4.90;2.13;;;17.00;97.00;;;;;;5049528;28;20102;-68
2022/07/07 08:06:07;;;;;;;1.98;1.48;;;16.80;97.00;;;;;;5047838;28;20025;-68
2022/07/07 08:08:32;;;;;;;4.20;1.70;;;16.50;97.30;;;;;;5047188;28;20091;-68
2022/07/07 08:10:58;;;;;;;3.08;1.48;;;16.40;97.80;;;;;;5042175;28;20112;-68
2022/07/07 08:13:23;;;;;;;6.63;2.15;;;16.40;98.10;;;;;;5047113;28;20111;-68
2022/07/07 08:15:49;;;;;;;7.82;2.20;;;16.50;98.40;;;;;;5046141;28;20461;-68
2022/07/07 08:18:14;;;;;;;4.13;1.45;;;16.60;98.50;;;;;;5049374;28;20506;-68
2022/07/07 08:20:43;;;;;;;6.05;1.80;;;16.50;98.20;;;;;;5048205;28;20033;-68
2022/07/07 08:23:09;;;;;;;6.90;1.70;;;16.40;98.10;;;;;;5049612;28;20031;-68
2022/07/07 08:25:34;;;;;;;6.22;2.15;;;16.60;98.20;;;;;;5045466;28;20048;-68
2022/07/07 08:28:00;;;;;;;6.65;2.33;;;16.80;98.00;;;;;;5048371;28;20033;-68
2022/07/07 08:30:25;;;;;;;10.30;2.80;;;16.90;97.70;;;;;;5034348;28;20121;-68
2022/07/07 08:32:51;;;;;;;6.35;3.13;;;17.20;97.80;;;;;;5049493;28;20097;-68
2022/07/07 08:35:17;;;;;;;7.85;4.03;;;17.10;96.70;;;;;;5047289;28;20334;-68
2022/07/07 08:37:43;;;;;;;11.80;4.15;;;17.30;96.70;;;;;;5049185;28;20032;-68
2022/07/07 08:40:09;;;;;;;6.63;4.40;;;17.30;95.90;;;;;;5045077;28;20055;-68
2022/07/07 08:42:34;;;;;;;8.02;4.50;;;17.50;95.80;;;;;;5048124;28;20354;-68
2022/07/07 08:45:00;;;;;;;9.63;3.97;;;17.40;95.00;;;;;;5046698;28;20044;-68
2022/07/07 08:47:26;;;;;;;4.13;2.97;;;17.60;95.20;;;;;;5050176;28;20106;-68
2022/07/07 08:49:51;;;;;;;6.13;2.90;;;17.50;95.20;;;;;;5048514;28;20051;-68
2022/07/07 08:52:18;;;;;;;4.28;2.20;;;17.50;95.20;;;;;;5049379;28;20056;-68
2022/07/07 08:54:46;;;;;;;4.38;1.98;;;17.30;94.60;;;;;;5043278;28;20029;-68
2022/07/07 08:57:11;;;;;;;6.03;1.77;;;17.40;94.00;;;;;;5047521;28;20103;-68
2022/07/07 08:59:37;;;;;;;5.18;1.88;;;17.20;94.20;;;;;;5044284;28;20078;-68
2022/07/07 09:02:03;;;;;;;6.30;1.95;;;17.30;94.30;;;;;;5048757;28;20194;-68
2022/07/07 09:04:29;;;;;;;5.28;1.48;;;17.30;93.80;;;;;;5046067;28;20025;-68
2022/07/07 09:06:59;;;;;;;3.17;1.60;;;17.40;94.30;;;;;;5048272;28;20040;-68
2022/07/07 09:09:28;;;;;;;7.68;1.63;;;17.50;94.70;;;;;;5046206;28;20100;-68
2022/07/07 09:12:00;;;;;;;4.75;1.60;;;17.50;94.40;;;;;;5045837;28;20068;-68
2022/07/07 09:14:33;;;;;;;3.92;1.42;;;17.60;94.80;;;;;;5042895;28;20094;-68
2022/07/07 09:16:59;;;;;;;3.70;1.60;;;17.40;94.20;;;;;;5040771;28;20036;-68
2022/07/07 09:19:24;;;;;;;5.05;1.33;;;17.30;94.70;;;;;;5046256;28;20110;-68
2022/07/07 09:21:50;;;;;;;3.25;1.33;;;17.30;94.50;;;;;;5039123;28;20383;-68
2022/07/07 09:24:16;;;;;;;5.50;1.45;;;17.30;94.70;;;;;;5048070;28;20037;-68
2022/07/07 09:26:53;;;;;;;4.93;1.50;;;17.40;94.20;;;;;;5045841;28;20071;-68
2022/07/07 09:29:20;;;;;;;6.85;1.40;;;17.40;93.90;;;;;;5043402;28;20116;-68
2022/07/07 09:31:57;;;;;;;6.97;1.50;;;17.60;93.60;;;;;;5048339;28;20429;-68
2022/07/07 09:34:34;;;;;;;7.03;1.15;;;17.70;92.90;;;;;;5048264;28;20377;-68
2022/07/07 09:39:52;;;;;;;6.97;1.20;;;17.60;93.00;;;;;;5047370;28;20063;-68
2022/07/07 09:42:25;;;;;;;6.20;1.48;;;17.70;92.70;;;;;;5045034;28;20488;-68
2022/07/07 09:44:54;;;;;;;7.28;1.30;;;17.70;91.80;;;;;;5046560;28;20559;-68
2022/07/07 09:47:22;;;;;;;3.72;1.05;;;17.80;92.30;;;;;;5049048;28;20073;-68
2022/07/07 09:50:10;;;;;;;4.75;1.27;;;17.90;91.70;;;;;;5046127;28;20453;-68
2022/07/07 09:52:38;;;;;;;3.70;1.00;;;18.60;90.40;;;;;;5048604;28;20108;-68
2022/07/07 09:55:06;;;;;;;2.92;0.95;;;18.80;88.80;;;;;;5044061;28;20379;-68
2022/07/07 09:57:32;;;;;;;7.85;1.23;;;18.60;85.70;;;;;;5049917;28;20330;-68
2022/07/07 09:59:57;;;;;;;6.38;1.10;;;18.50;85.40;;;;;;5046436;28;20048;-68
2022/07/07 10:02:26;;;;;;;5.90;1.15;;;18.20;87.00;;;;;;5047084;28;20478;-68
2022/07/07 10:04:57;;;;;;;3.83;0.85;;;18.30;86.50;;;;;;5048532;28;20059;-68
2022/07/07 10:07:29;;;;;;;;;;;18.40;87.30;;;;;;5048685;28;20112;-68
2022/07/07 10:09:57;;;;;;;4.85;0.90;;;18.70;87.20;;;;;;5046402;28;20368;-68
2022/07/07 10:12:25;;;;;;;5.78;1.23;;;18.60;85.00;;;;;;5046939;28;20039;-68
2022/07/07 10:15:00;;;;;;;3.17;1.02;;;18.50;85.40;;;;;;5043714;28;20021;-68
2022/07/07 10:17:30;;;;;;;5.18;1.42;;;18.60;85.00;;;;;;5048389;28;20033;-68
2022/07/07 10:19:56;;;;;;;3.63;1.05;;;18.60;86.40;;;;;;5047286;28;20144;-68
2022/07/07 10:22:27;;;;;;;4.60;1.40;;;18.50;86.50;;;;;;5044532;28;20037;-68
2022/07/07 10:24:54;;;;;;;8.18;1.30;;;18.30;85.70;;;;;;5043457;28;20060;-68
2022/07/07 10:27:22;;;;;;;4.85;1.20;;;18.00;85.10;;;;;;5047335;28;20132;-68
2022/07/07 10:30:06;;;;;;;7.38;1.45;;;17.90;84.00;;;;;;5035355;28;20175;-68
2022/07/07 10:32:50;;;;;;;7.20;1.33;;;18.10;84.70;;;;;;5050857;28;20063;-68
2022/07/07 10:35:17;;;;;;;3.47;1.23;;;18.20;84.00;;;;;;5049973;28;20036;-68
2022/07/07 10:37:47;;;;;;;5.07;1.23;;;18.20;85.30;;;;;;5050497;28;20441;-68
2022/07/07 10:40:19;;;;;;;6.85;1.30;;;18.00;84.40;;;;;;5049721;28;20117;-68
2022/07/07 10:43:16;;;;;;;2.65;1.40;;;17.60;85.50;;;;;;5046625;28;20098;-68
2022/07/07 10:45:48;;;;;;;5.68;1.30;;;17.30;86.00;;;;;;5049441;28;20097;-68
2022/07/07 10:48:42;;;;;;;6.15;1.40;;;17.10;88.50;;;;;;5052045;28;20017;-68
2022/07/07 10:51:49;;;;;;;3.20;1.30;;;16.90;88.90;;;;;;5040704;28;20107;-68
2022/07/07 10:54:15;;;;;;;6.88;1.33;;;17.10;87.60;;;;;;5048048;28;20325;-68
2022/07/07 10:56:53;;;;;;;9.30;1.90;;;17.50;86.50;;;;;;5048436;28;20033;-68
2022/07/07 10:59:20;;;;;;;5.43;1.60;;;17.90;85.80;;;;;;5048532;28;20064;-68
2022/07/07 11:02:07;;;;;;;7.93;1.52;;;18.30;83.20;;;;;;5050499;28;20112;-68
2022/07/07 11:04:46;;;;;;;6.00;1.48;;;19.00;81.10;;;;;;5050433;28;20479;-68
2022/07/07 11:07:17;;;;;;;4.50;0.93;;;19.70;80.60;;;;;;5044093;28;20036;-69
2022/07/07 11:09:59;;;;;;;9.02;1.38;;;19.40;81.00;;;;;;5037299;28;20536;-68
2022/07/07 11:12:47;;;;;;;7.05;1.42;;;19.90;80.30;;;;;;5047634;28;20098;-68
2022/07/07 11:15:22;;;;;;;7.00;1.20;;;19.50;78.50;;;;;;5037309;28;20123;-68
2022/07/07 11:17:55;;;;;;;5.90;1.40;;;19.00;79.10;;;;;;5047544;28;20072;-68
2022/07/07 11:20:32;;;;;;;7.72;1.27;;;18.80;81.50;;;;;;5050362;28;20079;-68
2022/07/07 11:23:12;;;;;;;4.88;1.55;;;18.50;82.00;;;;;;5050493;28;20029;-68
2022/07/07 11:25:39;;;;;;;5.30;1.20;;;18.40;83.10;;;;;;5050157;28;20025;-68
2022/07/07 11:28:05;;;;;;;3.58;1.17;;;18.50;83.30;;;;;;5047467;28;20375;-68
2022/07/07 11:30:31;;;;;;;5.07;1.23;;;18.70;82.60;;;;;;5050007;28;20029;-68
2022/07/07 11:32:58;;;;;;;4.15;0.90;;;18.80;82.60;;;;;;5047755;28;20033;-68
2022/07/07 11:35:29;;;;;;;2.97;1.10;;;18.70;80.80;;;;;;5049460;28;20125;-68
2022/07/07 11:37:54;;;;;;;5.72;1.00;;;19.30;80.40;;;;;;5051320;28;20041;-68
2022/07/07 11:40:20;;;;;;;1.98;1.10;;;20.10;77.90;;;;;;5049179;28;20113;-68
2022/07/07 11:42:45;;;;;;;5.45;0.80;;;20.40;76.60;;;;;;5046664;28;20444;-68
2022/07/07 11:45:29;;;;;;;5.30;0.90;;;20.10;76.70;;;;;;5046272;28;20384;-68
2022/07/07 11:48:03;;;;;;;2.40;0.90;;;19.60;76.90;;;;;;5045577;28;20029;-68
2022/07/07 11:50:32;;;;;;;2.05;0.90;;;19.50;76.90;;;;;;5049920;28;20071;-68
2022/07/07 11:53:00;;;;;;;1.60;0.60;;;19.40;78.10;;;;;;5046762;28;20111;-68
2022/07/07 11:55:27;;;;;;;3.50;0.82;;;19.50;76.90;;;;;;5046373;28;20437;-68
2022/07/07 11:57:55;;;;;;;2.15;0.57;;;19.50;78.10;;;;;;5049744;28;20116;-68
2022/07/07 12:00:21;;;;;;;0.73;0.50;;;19.50;76.50;;;;;;5047065;28;20025;-68
2022/07/07 12:02:49;;;;;;;1.75;0.60;;;19.80;74.50;;;;;;5046472;28;20091;-68
2022/07/07 12:05:22;;;;;;;2.33;0.75;;;19.50;76.70;;;;;;5043516;28;20028;-68
2022/07/07 12:08:01;;;;;;;2.17;0.68;;;19.30;79.10;;;;;;5045927;28;20044;-68
2022/07/07 12:10:35;;;;;;;2.28;0.50;;;18.50;82.00;;;;;;5044813;28;20040;-68
2022/07/07 12:13:07;;;;;;;0.55;0.35;;;17.60;85.90;;;;;;5045044;28;20021;-68
2022/07/07 12:15:44;;;;;;;1.95;0.63;;;17.70;88.30;;;;;;5049141;28;20017;-68
2022/07/07 12:18:11;;;;;;;1.33;0.43;;;17.90;87.40;;;;;;5047384;28;20037;-68
2022/07/07 12:20:38;;;;;;;0.75;0.50;;;17.20;89.10;;;;;;5049976;28;20036;-68
2022/07/07 12:23:17;;;;;;;1.73;0.73;;;17.10;90.90;;;;;;5049506;28;20037;-68
2022/07/07 12:25:42;;;;;;;3.25;0.80;;;16.80;91.70;;;;;;5044049;28;20248;-68
2022/07/07 12:28:09;;;;;;;3.85;1.20;;;17.00;90.30;;;;;;5047994;28;20396;-68
2022/07/07 12:30:55;;;;;;;6.18;1.52;;;17.50;89.30;;;;;;5047455;28;20029;-67
2022/07/07 12:33:40;;;;;;;6.32;1.30;;;17.80;86.90;;;;;;5048329;28;20079;-68
2022/07/07 12:36:21;;;;;;;6.80;1.25;;;17.70;87.10;;;;;;5049086;28;20079;-68
2022/07/07 12:39:04;;;;;;;3.90;1.42;;;17.40;87.00;;;;;;5049101;28;20112;-68
2022/07/07 12:41:32;;;;;;;7.47;1.40;;;17.30;86.90;;;;;;5046301;28;20371;-68
2022/07/07 12:44:23;;;;;;;5.03;1.50;;;17.70;86.20;;;;;;5045632;28;20032;-67